Time;durP1;ratioP1;P1;durP2;ratioP2;P2;SDS_P1;SDS_P2;PMS_P1;PMS_P2;Temp;Humidity;BMP_temperature;BMP_pressure;BME280_temperature;BME280_humidity;BME280_pressure;Samples;Min_cycle;Max_cycle;Signal;HPM_P1;HPM_P2
2024/01/26 00:00:44;;;;;;;2.28;1.73;;;12.90;96.90;;;;;;5034196;28;20036;-46
2024/01/26 00:03:09;;;;;;;2.22;1.63;;;12.90;97.00;;;;;;5032656;28;20029;-46
2024/01/26 00:05:35;;;;;;;2.53;1.63;;;12.80;97.00;;;;;;5033531;28;20030;-46
2024/01/26 00:08:01;;;;;;;2.30;1.70;;;12.80;97.10;;;;;;5032533;28;20049;-45
2024/01/26 00:10:26;;;;;;;2.53;1.60;;;12.70;97.20;;;;;;5034309;28;20040;-44
2024/01/26 00:12:52;;;;;;;3.53;1.95;;;12.70;97.20;;;;;;5032682;28;20052;-46
2024/01/26 00:15:18;;;;;;;2.33;1.70;;;12.60;97.30;;;;;;5032542;28;20033;-44
2024/01/26 00:17:43;;;;;;;2.47;1.67;;;12.60;97.40;;;;;;5031291;28;20107;-46
2024/01/26 00:20:09;;;;;;;1.67;1.38;;;12.60;97.50;;;;;;5034053;28;20396;-46
2024/01/26 00:22:35;;;;;;;2.45;1.60;;;12.50;97.50;;;;;;5033033;28;20074;-46
2024/01/26 00:25:01;;;;;;;2.38;1.50;;;12.50;97.60;;;;;;5034298;28;20508;-46
2024/01/26 00:27:27;;;;;;;2.33;1.70;;;12.50;97.70;;;;;;5033801;28;20552;-44
2024/01/26 00:29:52;;;;;;;2.08;1.60;;;12.40;97.70;;;;;;5032540;28;20034;-45
2024/01/26 00:32:18;;;;;;;2.28;1.52;;;12.40;97.80;;;;;;5032157;28;20057;-46
2024/01/26 00:34:43;;;;;;;2.33;1.60;;;12.40;97.90;;;;;;5032572;28;20021;-45
2024/01/26 00:37:09;;;;;;;2.22;1.38;;;12.30;97.90;;;;;;5034310;28;20234;-44
2024/01/26 00:39:35;;;;;;;3.15;1.60;;;12.30;98.30;;;;;;5032567;28;20479;-44
2024/01/26 00:42:01;;;;;;;1.55;1.30;;;12.30;98.00;;;;;;5033155;28;20426;-44
2024/01/26 00:44:26;;;;;;;1.85;1.50;;;12.20;98.00;;;;;;5033231;28;20021;-45
2024/01/26 00:46:52;;;;;;;1.92;1.50;;;12.20;98.10;;;;;;5033653;28;20029;-45
2024/01/26 00:49:18;;;;;;;1.88;1.40;;;12.10;98.10;;;;;;5032929;28;20493;-45
2024/01/26 00:51:44;;;;;;;1.88;1.48;;;12.10;98.20;;;;;;5031871;28;20025;-44
2024/01/26 00:54:09;;;;;;;2.45;1.58;;;12.10;98.30;;;;;;5032889;28;20069;-46
2024/01/26 00:56:35;;;;;;;2.30;1.70;;;12.10;98.30;;;;;;5033195;28;20060;-44
2024/01/26 00:59:01;;;;;;;1.83;1.38;;;12.10;98.40;;;;;;5032166;28;20029;-44
2024/01/26 01:01:26;;;;;;;2.58;1.58;;;12.00;98.40;;;;;;5033303;28;20061;-46
2024/01/26 01:03:52;;;;;;;2.63;1.60;;;12.00;98.50;;;;;;5032509;28;20033;-45
2024/01/26 01:06:18;;;;;;;2.08;1.50;;;12.00;98.50;;;;;;5032286;28;20582;-45
2024/01/26 01:08:44;;;;;;;2.03;1.30;;;11.90;98.60;;;;;;5032493;28;20108;-46
2024/01/26 01:11:09;;;;;;;2.30;1.38;;;11.90;98.60;;;;;;5032337;28;20029;-44
2024/01/26 01:13:36;;;;;;;2.20;1.48;;;11.90;98.70;;;;;;5031140;28;20379;-46
2024/01/26 01:16:02;;;;;;;2.63;1.48;;;11.90;98.70;;;;;;5033314;28;20040;-46
2024/01/26 01:18:28;;;;;;;2.45;1.50;;;11.90;99.10;;;;;;5032565;28;20033;-44
2024/01/26 01:20:53;;;;;;;3.22;1.63;;;11.80;98.80;;;;;;5033150;28;20025;-46
2024/01/26 01:23:20;;;;;;;1.48;1.30;;;11.80;98.80;;;;;;5032783;28;20041;-44
2024/01/26 01:25:46;;;;;;;2.67;1.67;;;11.80;98.90;;;;;;5032383;28;20459;-44
2024/01/26 01:28:11;;;;;;;2.58;1.70;;;11.80;98.90;;;;;;5032314;28;20084;-44
2024/01/26 01:30:37;;;;;;;2.10;1.50;;;11.70;98.90;;;;;;5031260;28;20057;-45
2024/01/26 01:33:03;;;;;;;1.80;1.42;;;11.70;99.00;;;;;;5031024;28;20026;-44
2024/01/26 01:35:29;;;;;;;1.80;1.55;;;11.70;99.00;;;;;;5031580;28;20383;-46
2024/01/26 01:37:54;;;;;;;2.63;1.52;;;11.70;99.10;;;;;;5031610;28;20121;-44
2024/01/26 01:40:20;;;;;;;2.10;1.42;;;11.70;99.10;;;;;;5032314;28;20038;-44
2024/01/26 01:42:46;;;;;;;2.42;1.67;;;11.60;99.10;;;;;;5031365;28;20025;-45
2024/01/26 01:45:13;;;;;;;2.10;1.20;;;11.60;99.20;;;;;;5032211;28;20026;-45
2024/01/26 01:47:40;;;;;;;2.15;1.50;;;11.60;99.20;;;;;;5031317;28;20025;-45
2024/01/26 01:50:09;;;;;;;2.45;1.60;;;11.60;99.20;;;;;;5031432;28;20101;-45
2024/01/26 01:52:40;;;;;;;2.47;1.40;;;11.60;99.30;;;;;;5032022;28;20024;-44
2024/01/26 01:55:09;;;;;;;2.13;1.30;;;11.50;99.30;;;;;;5031155;28;20024;-45
2024/01/26 01:57:38;;;;;;;2.22;1.45;;;11.50;99.40;;;;;;5030930;28;20045;-44
2024/01/26 02:00:04;;;;;;;1.55;1.05;;;11.50;99.40;;;;;;5031980;28;20085;-43
2024/01/26 02:02:30;;;;;;;1.98;1.40;;;11.50;99.40;;;;;;5031139;28;20751;-45
2024/01/26 02:04:55;;;;;;;1.90;1.40;;;11.50;99.50;;;;;;5032360;28;20043;-45
2024/01/26 02:07:21;;;;;;;2.55;1.65;;;11.50;99.50;;;;;;5031283;28;20021;-45
2024/01/26 02:09:46;;;;;;;1.83;1.20;;;11.50;99.50;;;;;;5031822;28;20103;-46
2024/01/26 02:12:13;;;;;;;1.95;1.35;;;11.50;99.60;;;;;;5031879;28;20022;-44
2024/01/26 02:14:39;;;;;;;2.88;1.30;;;11.40;99.60;;;;;;5031772;28;20029;-45
2024/01/26 02:17:04;;;;;;;2.05;1.30;;;11.40;99.60;;;;;;5031481;28;20026;-45
2024/01/26 02:19:32;;;;;;;2.03;1.38;;;11.40;99.70;;;;;;5030844;28;20431;-45
2024/01/26 02:21:58;;;;;;;1.65;1.20;;;11.40;99.70;;;;;;5033198;28;20025;-45
2024/01/26 02:24:23;;;;;;;1.92;1.20;;;11.40;99.70;;;;;;5032201;28;20048;-44
2024/01/26 02:26:49;;;;;;;2.03;1.40;;;11.40;99.80;;;;;;5035391;28;20048;-44
2024/01/26 02:29:15;;;;;;;2.20;1.40;;;11.30;99.80;;;;;;5034547;28;20022;-45
2024/01/26 02:31:40;;;;;;;2.17;1.35;;;11.30;99.80;;;;;;5036159;28;20428;-45
2024/01/26 02:34:12;;;;;;;2.55;1.45;;;11.30;99.80;;;;;;5034838;28;20021;-44
2024/01/26 02:36:38;;;;;;;1.80;1.20;;;11.30;99.80;;;;;;5035403;28;20029;-46
2024/01/26 02:39:05;;;;;;;1.35;0.90;;;11.30;99.90;;;;;;5035239;28;20021;-45
2024/01/26 02:41:32;;;;;;;2.28;1.50;;;11.30;99.90;;;;;;5035520;28;20659;-46
2024/01/26 02:43:58;;;;;;;2.35;1.30;;;11.30;99.90;;;;;;5034300;28;20034;-44
2024/01/26 02:46:23;;;;;;;1.88;1.20;;;11.20;99.90;;;;;;5034039;28;20040;-44
2024/01/26 02:48:49;;;;;;;1.60;1.23;;;11.20;99.90;;;;;;5034706;28;20446;-44
2024/01/26 02:51:15;;;;;;;1.90;1.10;;;11.20;99.90;;;;;;5036105;28;20049;-45
2024/01/26 02:53:41;;;;;;;2.08;1.30;;;11.20;99.90;;;;;;5035280;28;20034;-46
2024/01/26 02:56:09;;;;;;;2.15;1.20;;;11.20;99.90;;;;;;5035628;28;20029;-44
2024/01/26 02:58:36;;;;;;;1.45;0.98;;;11.20;99.90;;;;;;5034754;28;20056;-45
2024/01/26 03:01:01;;;;;;;1.20;1.00;;;11.20;99.90;;;;;;5033989;28;20099;-46
2024/01/26 03:03:27;;;;;;;1.35;1.00;;;11.20;99.90;;;;;;5034058;28;20068;-45
2024/01/26 03:05:53;;;;;;;1.45;1.00;;;11.10;99.90;;;;;;5034852;28;20447;-44
2024/01/26 03:08:18;;;;;;;1.60;1.05;;;11.10;99.90;;;;;;5033663;28;20021;-45
2024/01/26 03:10:44;;;;;;;1.40;1.00;;;11.10;99.90;;;;;;5034320;28;20075;-44
2024/01/26 03:13:10;;;;;;;2.20;1.20;;;11.10;99.90;;;;;;5034788;28;20026;-45
2024/01/26 03:15:36;;;;;;;1.50;1.00;;;11.10;99.90;;;;;;5033692;28;20025;-46
2024/01/26 03:18:01;;;;;;;1.80;1.10;;;11.10;99.90;;;;;;5034669;28;20025;-46
2024/01/26 03:20:27;;;;;;;1.42;1.00;;;11.10;99.90;;;;;;5034582;28;20034;-44
2024/01/26 03:22:52;;;;;;;1.70;1.15;;;11.10;99.90;;;;;;5035154;28;20108;-45
2024/01/26 03:25:18;;;;;;;1.30;0.95;;;11.10;99.90;;;;;;5033306;28;20554;-46
2024/01/26 03:27:44;;;;;;;1.60;1.05;;;11.10;99.90;;;;;;5033429;28;20029;-45
2024/01/26 03:30:10;;;;;;;2.25;1.08;;;11.00;99.90;;;;;;5036148;28;20105;-45
2024/01/26 03:32:35;;;;;;;0.95;0.68;;;11.00;99.90;;;;;;5035616;28;20028;-44
2024/01/26 03:35:01;;;;;;;1.40;1.00;;;11.00;99.90;;;;;;5033219;28;20471;-45
2024/01/26 03:37:27;;;;;;;2.17;1.00;;;11.00;99.90;;;;;;5034427;28;20100;-44
2024/01/26 03:39:53;;;;;;;1.30;1.02;;;11.00;99.90;;;;;;5034389;28;20503;-45
2024/01/26 03:42:18;;;;;;;1.10;0.85;;;11.00;99.90;;;;;;5033796;28;20046;-45
2024/01/26 03:44:44;;;;;;;2.28;1.10;;;11.00;99.90;;;;;;5033628;28;20365;-44
2024/01/26 03:47:10;;;;;;;1.30;0.90;;;11.00;99.90;;;;;;5033929;28;20044;-46
2024/01/26 03:49:36;;;;;;;1.80;1.05;;;11.00;99.90;;;;;;5033033;28;20026;-45
2024/01/26 03:52:03;;;;;;;1.00;0.80;;;11.00;99.90;;;;;;5033742;28;20033;-46
2024/01/26 03:54:29;;;;;;;1.23;0.70;;;11.00;99.90;;;;;;5034100;28;20022;-46
2024/01/26 03:56:55;;;;;;;1.65;0.90;;;11.00;99.90;;;;;;5033637;28;20399;-45
2024/01/26 03:59:20;;;;;;;1.30;0.90;;;11.00;99.90;;;;;;5032814;28;20033;-44
2024/01/26 04:01:46;;;;;;;1.50;0.80;;;11.00;99.90;;;;;;5032932;28;20022;-45
2024/01/26 04:04:12;;;;;;;1.08;0.80;;;10.90;99.90;;;;;;5034112;28;20029;-45
2024/01/26 04:06:41;;;;;;;1.60;0.85;;;10.90;99.90;;;;;;5034683;28;20357;-45
2024/01/26 04:09:08;;;;;;;1.15;0.80;;;10.90;99.90;;;;;;5034231;28;20087;-45
2024/01/26 04:11:34;;;;;;;1.30;0.90;;;10.90;99.90;;;;;;5033790;28;20021;-44
2024/01/26 04:13:59;;;;;;;1.15;0.70;;;10.90;99.90;;;;;;5033299;28;20022;-44
2024/01/26 04:16:25;;;;;;;0.93;0.70;;;10.90;99.90;;;;;;5033822;28;20052;-45
2024/01/26 04:18:50;;;;;;;1.65;0.90;;;10.90;99.90;;;;;;5033315;28;20042;-46
2024/01/26 04:21:16;;;;;;;1.63;0.80;;;10.90;99.90;;;;;;5032919;28;20068;-46
2024/01/26 04:23:41;;;;;;;0.93;0.68;;;10.90;99.90;;;;;;5032898;28;20483;-44
2024/01/26 04:26:07;;;;;;;1.80;0.93;;;10.90;99.90;;;;;;5032322;28;20466;-45
2024/01/26 04:28:33;;;;;;;1.48;0.90;;;10.90;99.90;;;;;;5032734;28;20032;-45
2024/01/26 04:30:58;;;;;;;1.05;0.77;;;10.90;99.90;;;;;;5033409;28;20029;-44
2024/01/26 04:33:24;;;;;;;1.40;0.90;;;10.90;99.90;;;;;;5032584;28;20490;-45
2024/01/26 04:35:49;;;;;;;1.20;0.80;;;10.90;99.90;;;;;;5032633;28;20037;-45
2024/01/26 04:38:15;;;;;;;1.65;0.90;;;10.80;99.90;;;;;;5032418;28;20112;-45
2024/01/26 04:40:41;;;;;;;1.05;0.70;;;10.90;99.90;;;;;;5032107;28;20033;-44
2024/01/26 04:43:06;;;;;;;0.90;0.70;;;10.90;99.90;;;;;;5031966;28;20026;-44
2024/01/26 04:45:32;;;;;;;1.13;0.70;;;10.80;99.90;;;;;;5031927;28;20036;-44
2024/01/26 04:47:58;;;;;;;1.40;0.90;;;10.80;99.90;;;;;;5031100;28;20029;-45
2024/01/26 04:50:23;;;;;;;2.00;0.80;;;10.80;99.90;;;;;;5031848;28;20061;-45
2024/01/26 04:52:52;;;;;;;2.33;1.20;;;10.80;99.90;;;;;;5032138;28;20471;-45
2024/01/26 04:55:18;;;;;;;1.08;0.73;;;10.80;99.90;;;;;;5031787;28;20361;-44
2024/01/26 04:57:43;;;;;;;1.27;0.88;;;10.80;99.90;;;;;;5031838;28;20234;-44
2024/01/26 05:00:09;;;;;;;1.05;0.90;;;10.80;99.90;;;;;;5032147;28;20026;-44
2024/01/26 05:02:35;;;;;;;1.08;0.80;;;10.80;99.90;;;;;;5031727;28;20063;-44
2024/01/26 05:05:01;;;;;;;1.10;0.70;;;10.80;99.90;;;;;;5031477;28;20098;-44
2024/01/26 05:07:26;;;;;;;1.73;0.75;;;10.80;99.90;;;;;;5030262;28;20022;-46
2024/01/26 05:09:52;;;;;;;1.23;0.77;;;10.80;99.90;;;;;;5031509;28;20067;-46
2024/01/26 05:12:18;;;;;;;1.02;0.80;;;10.80;99.90;;;;;;5032646;28;20104;-44
2024/01/26 05:14:44;;;;;;;0.82;0.80;;;10.80;99.90;;;;;;5032544;28;20028;-44
2024/01/26 05:17:10;;;;;;;1.42;1.00;;;10.80;99.90;;;;;;5031548;28;20066;-46
2024/01/26 05:19:35;;;;;;;1.20;0.85;;;10.80;99.90;;;;;;5032052;28;20053;-44
2024/01/26 05:22:01;;;;;;;1.40;0.90;;;10.80;99.90;;;;;;5030303;28;20076;-44
2024/01/26 05:24:27;;;;;;;2.08;1.10;;;10.80;99.90;;;;;;5032619;28;20041;-46
2024/01/26 05:26:55;;;;;;;1.15;0.93;;;10.70;99.90;;;;;;5032255;28;20076;-44
2024/01/26 05:29:21;;;;;;;1.15;0.70;;;10.70;99.90;;;;;;5031373;28;20047;-45
2024/01/26 05:31:46;;;;;;;1.33;0.90;;;10.70;99.90;;;;;;5032355;28;20033;-45
2024/01/26 05:34:12;;;;;;;0.80;0.70;;;10.70;99.90;;;;;;5032297;28;20017;-43
2024/01/26 05:36:42;;;;;;;1.10;0.70;;;10.70;99.90;;;;;;5031664;28;20021;-45
2024/01/26 05:39:09;;;;;;;1.15;0.63;;;10.70;99.90;;;;;;5031198;28;20495;-46
2024/01/26 05:41:34;;;;;;;1.70;0.80;;;10.70;99.90;;;;;;5031508;28;20112;-45
2024/01/26 05:44:00;;;;;;;1.40;0.70;;;10.70;99.90;;;;;;5031165;28;20108;-44
2024/01/26 05:46:26;;;;;;;1.45;0.80;;;10.70;99.90;;;;;;5031174;28;20108;-45
2024/01/26 05:48:51;;;;;;;1.23;0.80;;;10.70;99.90;;;;;;5031156;28;20442;-43
2024/01/26 05:51:17;;;;;;;1.20;0.73;;;10.70;99.90;;;;;;5031886;28;20029;-45
2024/01/26 05:53:43;;;;;;;1.13;0.70;;;10.70;99.90;;;;;;5032333;28;20373;-44
2024/01/26 05:56:08;;;;;;;0.65;0.60;;;10.70;99.90;;;;;;5031091;28;20120;-44
2024/01/26 05:58:34;;;;;;;1.92;0.85;;;10.70;99.90;;;;;;5033158;28;20096;-45
2024/01/26 06:01:00;;;;;;;1.10;0.70;;;10.70;99.90;;;;;;5035185;28;20057;-45
2024/01/26 06:03:26;;;;;;;0.93;0.73;;;10.70;99.90;;;;;;5035050;28;20029;-44
2024/01/26 06:05:51;;;;;;;0.98;0.77;;;10.70;99.90;;;;;;5034878;28;20083;-45
2024/01/26 06:08:17;;;;;;;0.90;0.60;;;10.70;99.90;;;;;;5035282;28;20120;-44
2024/01/26 06:10:43;;;;;;;1.40;0.60;;;10.70;99.90;;;;;;5035219;28;20057;-45
2024/01/26 06:13:08;;;;;;;0.82;0.60;;;10.70;99.90;;;;;;5034837;28;20052;-44
2024/01/26 06:15:36;;;;;;;2.38;0.75;;;10.60;99.90;;;;;;5035536;28;20036;-44
2024/01/26 06:18:01;;;;;;;1.33;0.50;;;10.70;99.90;;;;;;5035270;28;20017;-44
2024/01/26 06:20:31;;;;;;;0.40;0.40;;;10.60;99.90;;;;;;5033573;28;20029;-44
2024/01/26 06:22:57;;;;;;;0.90;0.55;;;10.60;99.90;;;;;;5034757;28;20036;-45
2024/01/26 06:25:23;;;;;;;1.00;0.60;;;10.60;99.90;;;;;;5034344;28;20029;-45
2024/01/26 06:27:49;;;;;;;1.15;0.70;;;10.60;99.90;;;;;;5034824;28;20029;-45
2024/01/26 06:30:15;;;;;;;0.70;0.60;;;10.60;99.90;;;;;;5035291;28;20025;-45
2024/01/26 06:32:42;;;;;;;1.33;0.60;;;10.60;99.90;;;;;;5035452;28;20030;-44
2024/01/26 06:35:09;;;;;;;0.73;0.60;;;10.60;99.90;;;;;;5035179;28;20105;-44
2024/01/26 06:37:34;;;;;;;1.30;0.70;;;10.60;99.90;;;;;;5035247;28;20028;-44
2024/01/26 06:40:00;;;;;;;1.50;0.70;;;10.60;99.90;;;;;;5034942;28;20406;-45
2024/01/26 06:42:25;;;;;;;0.85;0.60;;;10.60;99.90;;;;;;5035100;28;20017;-45
2024/01/26 06:44:53;;;;;;;1.10;0.60;;;10.60;99.90;;;;;;5034347;28;20092;-46
2024/01/26 06:47:19;;;;;;;1.20;0.85;;;10.60;99.90;;;;;;5034133;28;20498;-45
2024/01/26 06:49:44;;;;;;;0.85;0.60;;;10.60;99.90;;;;;;5034022;28;20033;-44
2024/01/26 06:52:10;;;;;;;0.88;0.60;;;10.60;99.90;;;;;;5034800;28;20025;-44
2024/01/26 06:54:38;;;;;;;1.00;0.63;;;10.60;99.90;;;;;;5034747;28;20025;-44
2024/01/26 06:57:07;;;;;;;0.50;0.40;;;10.60;99.90;;;;;;5033955;28;20021;-44
2024/01/26 06:59:37;;;;;;;0.90;0.50;;;10.60;99.90;;;;;;5036170;28;20041;-44
2024/01/26 07:02:04;;;;;;;1.33;0.63;;;10.60;99.90;;;;;;5035099;28;20026;-46
2024/01/26 07:04:29;;;;;;;0.98;0.47;;;10.60;99.90;;;;;;5033749;28;20356;-45
2024/01/26 07:06:55;;;;;;;0.73;0.50;;;10.60;99.90;;;;;;5034298;28;20052;-45
2024/01/26 07:09:20;;;;;;;0.82;0.60;;;10.60;99.90;;;;;;5034761;28;20037;-46
2024/01/26 07:11:46;;;;;;;1.13;0.70;;;10.60;99.90;;;;;;5035119;28;20044;-46
2024/01/26 07:14:12;;;;;;;0.95;0.57;;;10.60;99.90;;;;;;5034610;28;20068;-45
2024/01/26 07:16:38;;;;;;;0.90;0.52;;;10.60;99.90;;;;;;5034246;28;20021;-45
2024/01/26 07:19:03;;;;;;;0.82;0.60;;;10.60;99.90;;;;;;5033455;28;20033;-45
2024/01/26 07:21:31;;;;;;;0.80;0.70;;;10.60;99.90;;;;;;5035106;28;20060;-46
2024/01/26 07:23:57;;;;;;;0.82;0.70;;;10.60;99.90;;;;;;5034287;28;20030;-46
2024/01/26 07:26:22;;;;;;;0.85;0.57;;;10.60;99.90;;;;;;5033454;28;20083;-44
2024/01/26 07:28:48;;;;;;;0.98;0.70;;;10.60;99.90;;;;;;5033395;28;20022;-44
2024/01/26 07:31:14;;;;;;;1.00;0.80;;;10.70;99.90;;;;;;5033453;28;20555;-46
2024/01/26 07:33:40;;;;;;;0.95;0.55;;;10.70;99.90;;;;;;5034301;28;20097;-45
2024/01/26 07:36:05;;;;;;;2.53;0.60;;;10.70;99.90;;;;;;5033434;28;20033;-44
2024/01/26 07:38:31;;;;;;;0.88;0.50;;;10.70;99.90;;;;;;5033364;28;20026;-43
2024/01/26 07:40:57;;;;;;;0.60;0.55;;;10.70;99.90;;;;;;5033819;28;20108;-43
2024/01/26 07:43:24;;;;;;;1.23;0.82;;;10.80;99.90;;;;;;5035478;28;20026;-45
2024/01/26 07:45:50;;;;;;;1.05;0.60;;;10.80;99.90;;;;;;5034371;28;20108;-44
2024/01/26 07:48:15;;;;;;;0.85;0.68;;;10.80;99.90;;;;;;5034077;28;20105;-44
2024/01/26 07:50:42;;;;;;;1.10;0.70;;;10.80;99.90;;;;;;5033361;28;20045;-46
2024/01/26 07:53:08;;;;;;;1.00;0.60;;;10.90;99.90;;;;;;5033961;28;20064;-43
2024/01/26 07:55:34;;;;;;;1.00;0.60;;;11.00;99.90;;;;;;5034376;28;20403;-44
2024/01/26 07:58:00;;;;;;;1.08;0.60;;;11.00;99.90;;;;;;5033807;28;20033;-44
2024/01/26 08:00:26;;;;;;;1.27;0.68;;;11.00;99.90;;;;;;5034055;28;20060;-46
2024/01/26 08:02:52;;;;;;;0.50;0.50;;;11.10;99.90;;;;;;5033667;28;20033;-46
2024/01/26 08:05:18;;;;;;;0.70;0.60;;;11.20;99.90;;;;;;5033557;28;20080;-45
2024/01/26 08:07:44;;;;;;;1.70;0.55;;;11.30;99.90;;;;;;5034278;28;20044;-44
2024/01/26 08:10:10;;;;;;;0.93;0.60;;;11.30;99.90;;;;;;5033039;28;20026;-44
2024/01/26 08:12:36;;;;;;;0.70;0.52;;;11.40;99.90;;;;;;5033510;28;20033;-46
2024/01/26 08:15:03;;;;;;;0.80;0.60;;;11.40;99.90;;;;;;5033484;28;20108;-44
2024/01/26 08:17:29;;;;;;;0.80;0.57;;;11.50;99.90;;;;;;5033093;28;20107;-45
2024/01/26 08:19:54;;;;;;;0.77;0.50;;;11.60;99.90;;;;;;5032827;28;20474;-46
2024/01/26 08:22:20;;;;;;;1.00;0.70;;;11.70;99.90;;;;;;5033540;28;20335;-46
2024/01/26 08:24:46;;;;;;;0.70;0.52;;;11.70;99.90;;;;;;5033236;28;20037;-46
2024/01/26 08:27:11;;;;;;;0.70;0.47;;;11.80;99.90;;;;;;5033009;28;20084;-44
2024/01/26 08:29:38;;;;;;;1.08;0.52;;;11.90;99.90;;;;;;5033629;28;20075;-46
2024/01/26 08:32:04;;;;;;;1.02;0.63;;;11.90;99.90;;;;;;5032325;28;20475;-46
2024/01/26 08:34:30;;;;;;;0.68;0.40;;;12.00;99.90;;;;;;5032806;28;20064;-45
2024/01/26 08:36:55;;;;;;;1.15;0.60;;;12.10;99.90;;;;;;5032940;28;20474;-45
2024/01/26 08:39:22;;;;;;;0.80;0.60;;;12.20;99.90;;;;;;5033055;28;20029;-45
2024/01/26 08:41:48;;;;;;;0.65;0.43;;;12.20;99.90;;;;;;5032767;28;20025;-44
2024/01/26 08:44:14;;;;;;;0.60;0.38;;;12.30;99.90;;;;;;5032204;28;20033;-46
2024/01/26 08:46:46;;;;;;;0.68;0.50;;;12.40;99.90;;;;;;5032471;28;20546;-45
2024/01/26 08:49:12;;;;;;;0.60;0.52;;;12.40;99.90;;;;;;5031925;28;20060;-44
2024/01/26 08:51:37;;;;;;;0.82;0.60;;;12.50;99.80;;;;;;5031804;28;20052;-46
2024/01/26 08:54:04;;;;;;;0.63;0.40;;;12.60;99.80;;;;;;5032701;28;20017;-44
2024/01/26 08:56:30;;;;;;;0.80;0.50;;;12.70;99.70;;;;;;5033255;28;20029;-46
2024/01/26 08:58:56;;;;;;;0.45;0.45;;;12.70;99.60;;;;;;5032595;28;20025;-44
2024/01/26 09:01:24;;;;;;;1.67;0.52;;;12.80;99.40;;;;;;5032597;28;20403;-45
2024/01/26 09:03:50;;;;;;;0.90;0.63;;;12.90;99.30;;;;;;5032074;28;20028;-45
2024/01/26 09:06:16;;;;;;;2.47;2.17;;;12.90;99.40;;;;;;5031487;28;20021;-44
2024/01/26 09:08:41;;;;;;;3.58;2.20;;;13.00;99.40;;;;;;5031535;28;20391;-45
2024/01/26 09:11:07;;;;;;;3.67;2.63;;;13.00;99.30;;;;;;5033921;28;20471;-45
2024/01/26 09:13:33;;;;;;;2.95;2.53;;;13.10;99.20;;;;;;5032629;28;20104;-44
2024/01/26 09:15:58;;;;;;;5.15;2.78;;;13.20;99.10;;;;;;5032219;28;20025;-45
2024/01/26 09:18:24;;;;;;;3.13;2.67;;;13.20;98.90;;;;;;5031900;28;20030;-45
2024/01/26 09:20:50;;;;;;;3.85;3.13;;;13.30;98.90;;;;;;5033196;28;20033;-45
2024/01/26 09:23:19;;;;;;;6.13;3.05;;;13.40;98.80;;;;;;5033661;28;20021;-45
2024/01/26 09:25:45;;;;;;;3.67;2.80;;;13.40;98.60;;;;;;5031576;28;20033;-45
2024/01/26 09:28:11;;;;;;;4.63;2.88;;;13.50;98.60;;;;;;5032274;28;20087;-45
2024/01/26 09:30:38;;;;;;;4.03;2.70;;;13.50;98.40;;;;;;5032547;28;20036;-45
2024/01/26 09:33:04;;;;;;;3.05;2.70;;;13.60;98.30;;;;;;5031278;28;20424;-45
2024/01/26 09:35:29;;;;;;;4.15;2.85;;;13.70;98.30;;;;;;5031748;28;20025;-45
2024/01/26 09:37:55;;;;;;;4.55;3.08;;;13.70;98.10;;;;;;5032090;28;20514;-45
2024/01/26 09:40:23;;;;;;;3.85;2.53;;;13.70;98.00;;;;;;5031248;28;20025;-45
2024/01/26 09:42:49;;;;;;;3.47;2.70;;;13.80;98.00;;;;;;5032526;28;20017;-45
2024/01/26 09:45:15;;;;;;;3.55;2.70;;;13.80;97.90;;;;;;5031448;28;20053;-45
2024/01/26 09:47:41;;;;;;;3.38;2.42;;;13.90;97.80;;;;;;5031972;28;20072;-45
2024/01/26 09:50:10;;;;;;;2.75;2.55;;;13.90;97.80;;;;;;5031832;28;20026;-44
2024/01/26 09:52:37;;;;;;;3.78;2.92;;;14.00;97.70;;;;;;5031215;28;20029;-45
2024/01/26 09:55:04;;;;;;;3.08;2.45;;;14.00;97.70;;;;;;5031095;28;20021;-45
2024/01/26 09:57:31;;;;;;;3.03;2.30;;;14.10;97.60;;;;;;5031411;28;20026;-44
2024/01/26 09:59:57;;;;;;;3.33;2.50;;;14.10;97.50;;;;;;5030899;28;20113;-43
2024/01/26 10:02:23;;;;;;;3.38;2.40;;;14.20;97.40;;;;;;5031476;28;20068;-46
2024/01/26 10:04:49;;;;;;;3.03;2.65;;;14.20;97.30;;;;;;5031908;28;20026;-45
2024/01/26 10:07:15;;;;;;;3.15;2.40;;;14.20;97.20;;;;;;5030983;28;20360;-45
2024/01/26 10:09:41;;;;;;;4.43;2.50;;;14.30;97.20;;;;;;5030921;28;20172;-45
2024/01/26 10:12:10;;;;;;;3.35;2.40;;;14.30;97.00;;;;;;5031250;28;20025;-45
2024/01/26 10:14:37;;;;;;;3.63;2.50;;;14.40;97.00;;;;;;5033284;28;20128;-45
2024/01/26 10:17:03;;;;;;;4.00;2.53;;;14.40;96.90;;;;;;5031674;28;20509;-45
2024/01/26 10:19:30;;;;;;;3.13;2.25;;;14.40;96.80;;;;;;5031770;28;20030;-45
2024/01/26 10:21:56;;;;;;;2.60;2.40;;;14.50;96.80;;;;;;5032253;28;20029;-45
2024/01/26 10:24:25;;;;;;;2.45;2.20;;;14.50;96.70;;;;;;5030916;28;20033;-45
2024/01/26 10:26:52;;;;;;;3.42;2.45;;;14.60;96.60;;;;;;5030827;28;20491;-45
2024/01/26 10:29:18;;;;;;;3.72;2.58;;;14.60;96.60;;;;;;5030962;28;20036;-44
2024/01/26 10:31:45;;;;;;;3.15;2.53;;;14.60;96.50;;;;;;5031675;28;20094;-45
2024/01/26 10:34:15;;;;;;;3.03;2.30;;;14.70;96.40;;;;;;5030812;28;20036;-45
2024/01/26 10:36:45;;;;;;;3.15;2.40;;;14.70;96.40;;;;;;5031855;28;20416;-45
2024/01/26 10:39:31;;;;;;;3.03;2.30;;;14.70;96.30;;;;;;5031282;28;20426;-44
2024/01/26 10:42:03;;;;;;;2.83;2.17;;;14.70;96.20;;;;;;5031092;28;20486;-45
2024/01/26 10:44:30;;;;;;;3.60;2.45;;;14.80;96.20;;;;;;5030917;28;20055;-45
2024/01/26 10:46:57;;;;;;;3.65;2.45;;;14.80;96.20;;;;;;5034199;28;20108;-45
2024/01/26 10:49:24;;;;;;;3.08;2.28;;;14.80;96.10;;;;;;5034253;28;20025;-45
2024/01/26 10:51:52;;;;;;;3.13;2.22;;;14.80;96.10;;;;;;5035693;28;20018;-46
2024/01/26 10:54:18;;;;;;;2.40;1.90;;;14.80;96.10;;;;;;5036372;28;20032;-44
2024/01/26 10:56:43;;;;;;;3.17;2.30;;;14.80;96.00;;;;;;5034591;28;20029;-45
2024/01/26 10:59:12;;;;;;;2.42;1.90;;;14.90;96.00;;;;;;5035559;28;20064;-44
2024/01/26 11:01:39;;;;;;;3.15;2.20;;;14.90;96.00;;;;;;5035802;28;20026;-45
2024/01/26 11:04:07;;;;;;;2.15;1.75;;;14.90;96.30;;;;;;5036347;28;20032;-44
2024/01/26 11:06:34;;;;;;;3.33;2.13;;;14.90;95.90;;;;;;5033726;28;20029;-45
2024/01/26 11:09:04;;;;;;;1.88;1.48;;;14.90;95.90;;;;;;5035858;28;20099;-46
2024/01/26 11:11:34;;;;;;;2.22;1.50;;;14.90;96.00;;;;;;5035493;28;20407;-44
2024/01/26 11:14:02;;;;;;;1.40;0.98;;;15.00;96.00;;;;;;5035533;28;20025;-44
2024/01/26 11:16:32;;;;;;;2.70;1.00;;;15.00;96.00;;;;;;5034906;28;20028;-46
2024/01/26 11:18:58;;;;;;;2.22;1.10;;;15.10;96.00;;;;;;5035254;28;20389;-44
2024/01/26 11:21:24;;;;;;;1.95;0.90;;;15.10;95.90;;;;;;5035524;28;20026;-45
2024/01/26 11:23:50;;;;;;;1.77;0.85;;;15.20;95.90;;;;;;5034610;28;20041;-46
2024/01/26 11:26:17;;;;;;;1.30;0.98;;;15.20;95.80;;;;;;5034878;28;20083;-45
2024/01/26 11:28:45;;;;;;;1.10;0.88;;;15.30;95.80;;;;;;5033480;28;20383;-46
2024/01/26 11:31:11;;;;;;;1.10;0.70;;;15.30;95.70;;;;;;5035113;28;20030;-44
2024/01/26 11:33:39;;;;;;;1.08;0.70;;;15.40;95.70;;;;;;5033769;28;20019;-44
2024/01/26 11:36:11;;;;;;;1.60;0.90;;;15.40;95.60;;;;;;5033719;28;20383;-45
2024/01/26 11:38:38;;;;;;;2.22;1.00;;;15.50;95.60;;;;;;5033840;28;20033;-46
2024/01/26 11:41:06;;;;;;;1.15;0.80;;;15.50;95.50;;;;;;5033606;28;20488;-45
2024/01/26 11:43:31;;;;;;;1.05;0.80;;;15.60;95.50;;;;;;5035533;28;20112;-44
2024/01/26 11:45:57;;;;;;;2.22;0.90;;;15.60;95.40;;;;;;5033982;28;20097;-45
2024/01/26 11:48:23;;;;;;;1.35;0.80;;;15.70;95.40;;;;;;5034694;28;20368;-44
2024/01/26 11:50:49;;;;;;;1.60;0.82;;;15.70;95.30;;;;;;5034113;28;20054;-44
2024/01/26 11:53:17;;;;;;;1.65;0.90;;;15.70;95.30;;;;;;5035909;28;20037;-44
2024/01/26 11:55:45;;;;;;;2.30;0.80;;;15.80;95.20;;;;;;5034712;28;20043;-45
2024/01/26 11:58:11;;;;;;;1.42;0.90;;;15.80;95.20;;;;;;5034207;28;20029;-44
2024/01/26 12:00:37;;;;;;;0.93;0.80;;;15.80;95.10;;;;;;5034033;28;20040;-45
2024/01/26 12:03:15;;;;;;;1.30;0.90;;;15.90;95.10;;;;;;5034949;28;20076;-44
2024/01/26 12:05:41;;;;;;;1.45;0.75;;;15.90;95.00;;;;;;5033106;28;20026;-45
2024/01/26 12:08:09;;;;;;;1.08;0.70;;;15.90;95.00;;;;;;5033846;28;20017;-46
2024/01/26 12:10:35;;;;;;;1.17;0.90;;;16.00;95.00;;;;;;5034331;28;20577;-44
2024/01/26 12:13:02;;;;;;;1.10;0.80;;;16.00;94.90;;;;;;5034222;28;20104;-44
2024/01/26 12:15:31;;;;;;;0.80;0.60;;;16.00;94.80;;;;;;5035387;28;20021;-43
2024/01/26 12:18:06;;;;;;;1.20;0.90;;;16.10;94.80;;;;;;5032690;28;20483;-46
2024/01/26 12:20:32;;;;;;;0.88;0.80;;;16.10;94.80;;;;;;5032764;28;20104;-46
2024/01/26 12:22:57;;;;;;;1.35;0.82;;;16.10;94.70;;;;;;5033201;28;20109;-45
2024/01/26 12:25:27;;;;;;;1.63;0.95;;;16.10;94.70;;;;;;5034190;28;20037;-45
2024/01/26 12:27:54;;;;;;;1.52;0.90;;;16.10;94.60;;;;;;5033437;28;20379;-45
2024/01/26 12:30:19;;;;;;;1.35;0.90;;;16.20;94.60;;;;;;5033658;28;20067;-43
2024/01/26 12:32:45;;;;;;;1.67;1.13;;;16.20;94.60;;;;;;5033002;28;20056;-43
2024/01/26 12:35:11;;;;;;;1.27;0.88;;;16.20;94.50;;;;;;5032919;28;20100;-43
2024/01/26 12:37:36;;;;;;;1.50;1.00;;;16.20;94.50;;;;;;5033968;28;20026;-43
2024/01/26 12:40:02;;;;;;;2.53;1.20;;;16.20;94.50;;;;;;5033613;28;20026;-42
2024/01/26 12:42:28;;;;;;;1.60;0.90;;;16.20;94.50;;;;;;5033952;28;20146;-44